LTG weather

Langtang Airport
Langtang, Bagmati, Nepal

Public forecast

Using degrees Celsius for public forecast. Weather courtesy of forecast.io.

Closest aviation weather report (METAR) to Langtang Airport

Closest report is Tribhuvan International Airport, 32.5 nm (60.1 km) SSW. Retrieved 2020/01/25 04:20 UTC (14 minutes ago):

VNKT 250420Z VRB02KT 2500 BR FEW010 10/06 Q1021 NOSIG

Closest aviation forecast (TAF) to Langtang Airport

Closest forecast is Tribhuvan International Airport, 32.5 nm (60.1 km) SSW. Retrieved 2020-01-25 00:42 UTC (4 hours ago):

TAF TAF VNKT 242300Z 2500/2524 VRB02KT 3000 BR FEW010 PROB40 2501/2503 1500 BR BECMG 2504/2505 10004KT 4000 HZ FEW015 BECMG 2507/2508 22008KT 8000 FEW020 PROB40 2507/2512 21012KT FEW025 SCT030 BECMG 2514/2515 10003KT 6000 FEW015